createdAt,value
2023-11-07T00:02:16.952Z,50.51
2023-11-07T00:04:43.360Z,50.37
2023-11-07T00:07:09.758Z,50.86
2023-11-07T00:09:36.197Z,51.16
2023-11-07T00:12:02.607Z,50.19
2023-11-07T00:14:29.059Z,50.40
2023-11-07T00:16:55.469Z,50.35
2023-11-07T00:19:21.946Z,51.01
2023-11-07T00:21:48.376Z,50.09
2023-11-07T00:24:14.805Z,50.67
2023-11-07T00:26:41.247Z,50.93
2023-11-07T00:29:07.739Z,50.27
2023-11-07T00:31:34.145Z,50.81
2023-11-07T00:34:01.531Z,50.40
2023-11-07T00:36:28.049Z,50.26
2023-11-07T00:38:54.534Z,50.30
2023-11-07T00:41:20.937Z,50.52
2023-11-07T00:43:47.332Z,50.81
2023-11-07T00:46:13.753Z,50.46
2023-11-07T00:48:40.254Z,51.11
2023-11-07T00:51:06.849Z,50.21
2023-11-07T00:53:33.325Z,50.67
2023-11-07T00:55:59.729Z,49.89
2023-11-07T00:58:26.146Z,49.92
2023-11-07T01:00:52.566Z,50.27
2023-11-07T01:03:19.069Z,50.45
2023-11-07T01:05:45.652Z,50.03
2023-11-07T01:08:12.177Z,49.54
2023-11-07T01:10:38.598Z,49.88
2023-11-07T01:13:05.014Z,49.75
2023-11-07T01:15:31.441Z,49.66
2023-11-07T01:17:57.972Z,49.61
2023-11-07T01:20:24.498Z,49.87
2023-11-07T01:22:50.930Z,50.21
2023-11-07T01:25:18.239Z,50.61
2023-11-07T01:27:44.710Z,51.29
2023-11-07T01:30:11.165Z,50.50
2023-11-07T01:32:37.794Z,50.45
2023-11-07T01:35:04.386Z,50.71
2023-11-07T01:37:30.792Z,50.04
2023-11-07T01:39:57.212Z,50.14
2023-11-07T01:42:23.620Z,49.78
2023-11-07T01:44:50.098Z,50.94
2023-11-07T01:47:16.514Z,50.73
2023-11-07T01:49:42.910Z,50.28
2023-11-07T01:52:09.373Z,49.88
2023-11-07T01:54:35.797Z,50.23
2023-11-07T01:57:02.244Z,50.05
2023-11-07T01:59:28.693Z,50.81
2023-11-07T02:01:55.122Z,51.09
2023-11-07T02:04:21.670Z,50.22
2023-11-07T02:06:48.171Z,50.35
2023-11-07T02:09:14.592Z,50.47
2023-11-07T02:11:41.043Z,50.02
2023-11-07T02:14:07.703Z,50.28
2023-11-07T02:16:34.164Z,51.27
2023-11-07T02:19:00.768Z,51.31
2023-11-07T02:21:27.268Z,51.56
2023-11-07T02:23:53.743Z,51.21
2023-11-07T02:26:21.082Z,50.91
2023-11-07T02:28:47.492Z,51.02
2023-11-07T02:31:13.908Z,50.82
2023-11-07T02:33:40.467Z,51.14
2023-11-07T02:36:07.001Z,50.92
2023-11-07T02:38:33.507Z,50.89
2023-11-07T02:40:59.951Z,50.69
2023-11-07T02:43:26.360Z,50.41
2023-11-07T02:45:52.755Z,50.62
2023-11-07T02:48:19.347Z,50.67
2023-11-07T02:50:46.037Z,50.66
2023-11-07T02:53:12.563Z,51.23
2023-11-07T02:55:39.205Z,51.22
2023-11-07T02:58:05.677Z,51.13
2023-11-07T03:00:32.096Z,51.12
2023-11-07T03:02:58.576Z,50.99
2023-11-07T03:05:25.011Z,51.41
2023-11-07T03:07:51.506Z,50.96
2023-11-07T03:10:17.953Z,50.83
2023-11-07T03:12:44.375Z,50.92
2023-11-07T03:15:10.822Z,51.01
2023-11-07T03:17:37.435Z,50.50
2023-11-07T03:20:03.901Z,50.90
2023-11-07T03:22:30.347Z,51.04
2023-11-07T03:24:56.814Z,51.06
2023-11-07T03:27:23.241Z,50.74
2023-11-07T03:29:49.684Z,50.82
2023-11-07T03:32:16.105Z,50.97
2023-11-07T03:34:42.513Z,50.93
2023-11-07T03:37:08.952Z,50.89
2023-11-07T03:39:35.400Z,50.86
2023-11-07T03:42:01.850Z,51.13
2023-11-07T03:44:28.314Z,50.92
2023-11-07T03:46:54.728Z,50.63
2023-11-07T03:49:21.238Z,50.49
2023-11-07T03:51:47.699Z,50.84
2023-11-07T03:54:14.163Z,50.93
2023-11-07T03:56:40.607Z,51.05
2023-11-07T03:59:07.064Z,50.65
2023-11-07T04:01:33.607Z,50.50
2023-11-07T04:04:00.135Z,50.63
2023-11-07T04:06:26.622Z,50.76
2023-11-07T04:08:53.127Z,50.57
2023-11-07T04:11:19.549Z,50.62
2023-11-07T04:13:45.985Z,51.25
2023-11-07T04:16:13.257Z,50.68
2023-11-07T04:18:39.778Z,51.13
2023-11-07T04:21:06.305Z,50.36
2023-11-07T04:23:32.804Z,50.56
2023-11-07T04:25:59.300Z,50.38
2023-11-07T04:28:25.742Z,50.18
2023-11-07T04:30:52.220Z,50.65
2023-11-07T04:33:19.100Z,50.66
2023-11-07T04:35:45.615Z,50.30
2023-11-07T04:38:12.089Z,50.21
2023-11-07T04:40:38.473Z,50.79
2023-11-07T04:43:05.003Z,50.87
2023-11-07T04:45:31.502Z,50.80
2023-11-07T04:47:58.061Z,51.40
2023-11-07T04:50:24.561Z,50.97
2023-11-07T04:52:50.969Z,51.71
2023-11-07T04:55:17.427Z,51.72
2023-11-07T04:57:43.827Z,51.79
2023-11-07T05:00:10.267Z,51.66
2023-11-07T05:02:36.791Z,50.92
2023-11-07T05:05:06.038Z,51.27
2023-11-07T05:07:32.459Z,51.02
2023-11-07T05:09:58.826Z,50.43
2023-11-07T05:12:25.271Z,51.64
2023-11-07T05:14:51.717Z,51.62
2023-11-07T05:17:18.159Z,50.68
2023-11-07T05:19:44.657Z,50.92
2023-11-07T05:22:11.093Z,50.31
2023-11-07T05:24:37.485Z,51.61
2023-11-07T05:27:03.929Z,51.62
2023-11-07T05:29:30.321Z,51.40
2023-11-07T05:31:56.713Z,50.99
2023-11-07T05:34:23.173Z,50.51
2023-11-07T05:36:49.590Z,51.58
2023-11-07T05:39:17.115Z,50.65
2023-11-07T05:41:43.654Z,50.92
2023-11-07T05:44:10.997Z,50.58
2023-11-07T05:46:37.442Z,50.60
2023-11-07T05:49:04.032Z,50.15
2023-11-07T05:51:30.626Z,50.06
2023-11-07T05:53:58.204Z,49.93
2023-11-07T05:56:24.689Z,50.38
2023-11-07T05:58:51.116Z,50.35
2023-11-07T06:01:18.437Z,49.66
2023-11-07T06:03:44.944Z,50.24
2023-11-07T06:06:11.686Z,50.04
2023-11-07T06:08:38.305Z,50.54
2023-11-07T06:11:04.797Z,50.55
2023-11-07T06:13:31.242Z,51.14
2023-11-07T06:15:57.647Z,50.56
2023-11-07T06:18:24.169Z,50.92
2023-11-07T06:20:50.802Z,50.66
2023-11-07T06:23:18.310Z,50.30
2023-11-07T06:25:45.620Z,50.53
2023-11-07T06:28:13.978Z,50.68
2023-11-07T06:30:41.301Z,51.26
2023-11-07T06:33:08.854Z,51.06
2023-11-07T06:35:35.353Z,51.32
2023-11-07T06:38:03.741Z,51.82
2023-11-07T06:40:32.134Z,52.52
2023-11-07T06:42:58.648Z,52.71
2023-11-07T06:45:26.100Z,52.88
2023-11-07T06:47:52.799Z,53.46
2023-11-07T06:50:19.472Z,53.35
2023-11-07T06:52:47.862Z,53.50
2023-11-07T06:55:15.527Z,53.36
2023-11-07T06:57:42.125Z,53.91
2023-11-07T07:00:09.474Z,53.97
2023-11-07T07:02:38.085Z,54.51
2023-11-07T07:05:06.575Z,54.39
2023-11-07T07:07:33.156Z,54.16
2023-11-07T07:09:59.711Z,54.31
2023-11-07T07:12:27.132Z,53.58
2023-11-07T07:14:53.814Z,53.59
2023-11-07T07:17:20.353Z,53.35
2023-11-07T07:19:46.847Z,52.66
2023-11-07T07:22:13.326Z,52.59
2023-11-07T07:24:39.873Z,52.89
2023-11-07T07:27:06.776Z,52.76
2023-11-07T07:29:33.436Z,52.68
2023-11-07T07:32:00.203Z,52.58
2023-11-07T07:34:27.036Z,52.54
2023-11-07T07:36:54.883Z,52.62
2023-11-07T07:39:21.766Z,52.47
2023-11-07T07:41:48.736Z,52.41
2023-11-07T07:44:16.500Z,52.71
2023-11-07T07:46:43.314Z,52.20
2023-11-07T07:49:10.218Z,52.00
2023-11-07T07:51:37.092Z,52.22
2023-11-07T07:54:03.993Z,51.66
2023-11-07T07:56:30.977Z,51.45
2023-11-07T07:58:58.592Z,51.43
2023-11-07T08:01:26.080Z,51.45
2023-11-07T08:03:53.654Z,52.16
2023-11-07T08:06:20.334Z,52.80
2023-11-07T08:08:47.897Z,52.15
2023-11-07T08:11:14.469Z,52.74
2023-11-07T08:13:41.065Z,52.90
2023-11-07T08:16:11.043Z,52.12
2023-11-07T08:18:39.167Z,52.38
2023-11-07T08:21:06.708Z,52.25
2023-11-07T08:23:34.249Z,52.02
2023-11-07T08:26:00.786Z,52.18
2023-11-07T08:28:28.261Z,52.39
2023-11-07T08:30:54.795Z,51.74
2023-11-07T08:33:22.313Z,52.34
2023-11-07T08:35:49.868Z,52.46
2023-11-07T08:38:17.366Z,52.07
2023-11-07T08:40:44.853Z,51.95
2023-11-07T08:43:12.318Z,52.13
2023-11-07T08:45:38.854Z,52.16
2023-11-07T08:48:05.525Z,51.90
2023-11-07T08:50:32.985Z,52.27
2023-11-07T08:52:59.502Z,52.21
2023-11-07T08:55:27.532Z,52.30
2023-11-07T08:57:54.275Z,52.71
2023-11-07T09:00:21.766Z,52.13
2023-11-07T09:02:49.361Z,52.85
2023-11-07T09:05:16.049Z,52.32
2023-11-07T09:07:42.826Z,52.72
2023-11-07T09:10:09.401Z,52.18
2023-11-07T09:12:36.814Z,52.35
2023-11-07T09:15:03.374Z,52.06
2023-11-07T09:17:31.714Z,51.98
2023-11-07T09:19:59.913Z,52.26
2023-11-07T09:22:26.481Z,52.19
2023-11-07T09:24:53.928Z,51.68
2023-11-07T09:27:20.462Z,51.55
2023-11-07T09:29:47.875Z,51.33
2023-11-07T09:32:15.223Z,51.50
2023-11-07T09:34:41.889Z,51.55
2023-11-07T09:37:08.547Z,51.49
2023-11-07T09:39:35.134Z,51.67
2023-11-07T09:42:02.478Z,51.55
2023-11-07T09:44:28.977Z,51.42
2023-11-07T09:46:55.468Z,51.60
2023-11-07T09:49:21.920Z,51.62
2023-11-07T09:51:48.326Z,51.36
2023-11-07T09:54:18.358Z,51.46
2023-11-07T09:56:44.932Z,51.31
2023-11-07T09:59:12.290Z,50.85
2023-11-07T10:01:38.768Z,51.20
2023-11-07T10:04:05.733Z,50.43
2023-11-07T10:06:32.293Z,50.20
2023-11-07T10:08:58.751Z,51.23
2023-11-07T10:11:25.191Z,50.97
2023-11-07T10:13:51.685Z,50.87
2023-11-07T10:16:19.457Z,50.39
2023-11-07T10:18:46.055Z,49.62
2023-11-07T10:21:12.531Z,50.74
2023-11-07T10:23:38.972Z,50.09
2023-11-07T10:26:05.402Z,49.86
2023-11-07T10:28:31.804Z,49.70
2023-11-07T10:30:58.194Z,49.61
2023-11-07T10:33:24.697Z,48.54
2023-11-07T10:35:51.294Z,48.71
2023-11-07T10:38:20.542Z,48.69
2023-11-07T10:40:47.015Z,48.79
2023-11-07T10:43:13.409Z,49.19
2023-11-07T10:45:39.796Z,48.45
2023-11-07T10:48:06.316Z,48.43
2023-11-07T10:50:32.787Z,48.52
2023-11-07T10:52:59.216Z,48.51
2023-11-07T10:55:25.645Z,48.78
2023-11-07T10:57:51.998Z,48.95
2023-11-07T11:00:18.415Z,48.69
2023-11-07T11:02:44.983Z,47.73
2023-11-07T11:05:11.499Z,48.25
2023-11-07T11:07:37.917Z,48.43
2023-11-07T11:10:04.384Z,47.93
2023-11-07T11:12:30.795Z,48.31
2023-11-07T11:14:57.232Z,48.63
2023-11-07T11:17:23.711Z,48.08
2023-11-07T11:19:53.052Z,49.00
2023-11-07T11:22:19.534Z,48.11
2023-11-07T11:24:46.009Z,47.95
2023-11-07T11:27:15.064Z,48.45
2023-11-07T11:29:41.657Z,48.48
2023-11-07T11:32:08.090Z,48.55
2023-11-07T11:34:37.343Z,48.40
2023-11-07T11:37:03.821Z,48.55
2023-11-07T11:39:30.305Z,48.16
2023-11-07T11:41:56.903Z,48.41
2023-11-07T11:44:23.327Z,48.07
2023-11-07T11:46:49.806Z,48.25
2023-11-07T11:49:16.472Z,48.54
2023-11-07T11:51:42.943Z,48.31
2023-11-07T11:54:09.539Z,48.54
2023-11-07T11:56:36.075Z,48.54
2023-11-07T11:59:02.492Z,48.47
2023-11-07T12:01:28.917Z,48.72
2023-11-07T12:03:55.480Z,48.21
2023-11-07T12:06:22.423Z,48.17
2023-11-07T12:08:48.965Z,48.66
2023-11-07T12:11:15.536Z,48.73
2023-11-07T12:13:41.955Z,48.54
2023-11-07T12:16:08.349Z,48.68
2023-11-07T12:18:34.912Z,48.67
2023-11-07T12:21:01.471Z,48.92
2023-11-07T12:23:27.925Z,48.95
2023-11-07T12:25:54.403Z,49.20
2023-11-07T12:28:20.906Z,48.82
2023-11-07T12:30:47.330Z,49.08
2023-11-07T12:33:13.851Z,49.02
2023-11-07T12:35:40.409Z,49.47
2023-11-07T12:38:06.961Z,49.64
2023-11-07T12:40:33.634Z,49.74
2023-11-07T12:43:00.052Z,49.88
2023-11-07T12:45:26.468Z,49.92
2023-11-07T12:47:53.074Z,50.14
2023-11-07T12:50:19.529Z,49.94
2023-11-07T12:52:45.972Z,50.37
2023-11-07T12:55:13.281Z,50.20
2023-11-07T12:57:39.724Z,50.09
2023-11-07T13:00:06.177Z,50.38
2023-11-07T13:02:32.701Z,50.33
2023-11-07T13:04:59.168Z,50.37
2023-11-07T13:07:25.606Z,50.47
2023-11-07T13:09:52.064Z,50.40
2023-11-07T13:12:18.545Z,49.87
2023-11-07T13:14:44.966Z,50.08
2023-11-07T13:17:11.425Z,50.22
2023-11-07T13:19:37.912Z,50.48
2023-11-07T13:22:04.431Z,49.96
2023-11-07T13:24:30.905Z,49.98
2023-11-07T13:26:57.381Z,50.09
2023-11-07T13:29:23.827Z,50.36
2023-11-07T13:31:50.296Z,50.39
2023-11-07T13:34:16.942Z,50.53
2023-11-07T13:36:43.421Z,50.25
2023-11-07T13:39:09.945Z,50.45
2023-11-07T13:41:36.531Z,50.44
2023-11-07T13:44:02.949Z,50.38
2023-11-07T13:46:29.389Z,50.74
2023-11-07T13:48:56.208Z,50.73
2023-11-07T13:51:22.816Z,50.84
2023-11-07T13:53:49.311Z,50.91
2023-11-07T13:56:16.608Z,50.63
2023-11-07T13:58:43.019Z,50.55
2023-11-07T14:01:09.552Z,50.32
2023-11-07T14:03:36.139Z,50.52
2023-11-07T14:06:02.764Z,50.60
2023-11-07T14:08:29.252Z,50.60
2023-11-07T14:10:55.689Z,50.85
2023-11-07T14:13:22.121Z,51.56
2023-11-07T14:15:48.540Z,51.02
2023-11-07T14:18:20.118Z,51.40
2023-11-07T14:20:53.120Z,51.28
2023-11-07T14:23:21.594Z,51.67
2023-11-07T14:25:48.200Z,51.33
2023-11-07T14:28:15.708Z,51.25
2023-11-07T14:30:43.122Z,51.98
2023-11-07T14:33:10.617Z,51.62
2023-11-07T14:35:37.200Z,51.42
2023-11-07T14:38:03.810Z,52.14
2023-11-07T14:40:30.421Z,51.95
2023-11-07T14:42:57.041Z,51.76
2023-11-07T14:45:23.608Z,52.27
2023-11-07T14:47:51.282Z,51.42
2023-11-07T14:50:18.715Z,51.33
2023-11-07T14:52:45.316Z,51.48
2023-11-07T14:55:12.704Z,51.08
2023-11-07T14:57:39.161Z,51.38
2023-11-07T15:00:05.634Z,51.50
2023-11-07T15:02:32.226Z,52.01
2023-11-07T15:04:58.807Z,51.62
2023-11-07T15:07:25.310Z,52.40
2023-11-07T15:09:52.646Z,51.66
2023-11-07T15:12:19.248Z,52.60
2023-11-07T15:14:45.768Z,52.67
2023-11-07T15:17:13.085Z,52.40
2023-11-07T15:19:39.512Z,53.00
2023-11-07T15:22:05.964Z,52.64
2023-11-07T15:24:32.386Z,53.23
2023-11-07T15:26:59.020Z,52.04
2023-11-07T15:29:25.478Z,53.11
2023-11-07T15:31:51.901Z,52.30
2023-11-07T15:34:18.431Z,52.49
2023-11-07T15:36:44.862Z,52.10
2023-11-07T15:39:11.336Z,52.11
2023-11-07T15:41:37.778Z,52.76
2023-11-07T15:44:04.214Z,52.25
2023-11-07T15:46:30.628Z,52.94
2023-11-07T15:48:57.139Z,52.28
2023-11-07T15:51:25.710Z,52.36
2023-11-07T15:53:53.713Z,52.43
2023-11-07T15:56:20.175Z,52.36
2023-11-07T15:58:46.620Z,52.97
2023-11-07T16:01:13.029Z,51.84
2023-11-07T16:03:39.589Z,52.64
2023-11-07T16:06:06.140Z,52.00
2023-11-07T16:08:32.624Z,52.29
2023-11-07T16:10:59.055Z,52.11
2023-11-07T16:13:25.487Z,52.66
2023-11-07T16:15:51.891Z,51.70
2023-11-07T16:18:19.312Z,52.16
2023-11-07T16:20:45.825Z,51.86
2023-11-07T16:23:12.300Z,51.77
2023-11-07T16:25:38.723Z,52.15
2023-11-07T16:28:06.481Z,51.34
2023-11-07T16:30:33.202Z,52.34
2023-11-07T16:32:59.703Z,51.44
2023-11-07T16:35:26.253Z,51.75
2023-11-07T16:37:52.815Z,51.58
2023-11-07T16:40:19.301Z,52.25
2023-11-07T16:42:45.719Z,52.16
2023-11-07T16:45:15.148Z,51.94
2023-11-07T16:47:43.082Z,52.43
2023-11-07T16:50:10.673Z,51.99
2023-11-07T16:52:37.104Z,52.57
2023-11-07T16:55:03.548Z,52.37
2023-11-07T16:57:30.068Z,52.63
2023-11-07T16:59:56.555Z,52.21
2023-11-07T17:02:24.054Z,52.64
2023-11-07T17:04:52.558Z,52.36
2023-11-07T17:07:19.386Z,53.32
2023-11-07T17:09:45.821Z,52.68
2023-11-07T17:12:13.351Z,52.68
2023-11-07T17:14:40.748Z,52.67
2023-11-07T17:17:08.153Z,53.23
2023-11-07T17:19:34.596Z,52.69
2023-11-07T17:22:01.064Z,52.67
2023-11-07T17:24:27.938Z,52.35
2023-11-07T17:26:54.396Z,52.58
2023-11-07T17:29:21.138Z,52.35
2023-11-07T17:31:47.680Z,52.53
2023-11-07T17:34:14.368Z,52.55
2023-11-07T17:36:44.342Z,51.97
2023-11-07T17:39:11.748Z,52.25
2023-11-07T17:41:38.218Z,51.77
2023-11-07T17:44:05.007Z,51.81
2023-11-07T17:46:31.427Z,51.42
2023-11-07T17:48:57.973Z,51.36
2023-11-07T17:51:24.510Z,51.33
2023-11-07T17:53:52.025Z,51.88
2023-11-07T17:56:19.527Z,51.50
2023-11-07T17:58:46.063Z,52.35
2023-11-07T18:01:13.050Z,52.48
2023-11-07T18:03:39.555Z,52.58
2023-11-07T18:06:06.991Z,52.70
2023-11-07T18:08:34.398Z,52.55
2023-11-07T18:11:01.957Z,52.81
2023-11-07T18:13:28.480Z,52.43
2023-11-07T18:15:54.952Z,53.00
2023-11-07T18:18:21.471Z,52.46
2023-11-07T18:20:47.953Z,53.03
2023-11-07T18:23:15.505Z,52.09
2023-11-07T18:25:42.037Z,52.75
2023-11-07T18:28:09.875Z,52.28
2023-11-07T18:30:39.112Z,52.78
2023-11-07T18:33:05.716Z,52.19
2023-11-07T18:35:32.318Z,52.30
2023-11-07T18:37:58.990Z,51.68
2023-11-07T18:40:25.614Z,52.42
2023-11-07T18:42:53.007Z,51.97
2023-11-07T18:45:19.657Z,52.13
2023-11-07T18:47:49.157Z,51.27
2023-11-07T18:50:16.509Z,51.86
2023-11-07T18:52:43.869Z,51.67
2023-11-07T18:55:10.688Z,51.49
2023-11-07T18:57:38.106Z,51.29
2023-11-07T19:00:04.619Z,51.49
2023-11-07T19:02:31.957Z,51.35
2023-11-07T19:04:58.392Z,51.98
2023-11-07T19:07:25.168Z,51.73
2023-11-07T19:09:51.786Z,51.70
2023-11-07T19:12:19.226Z,52.37
2023-11-07T19:14:45.737Z,51.75
2023-11-07T19:17:13.107Z,52.02
2023-11-07T19:19:42.364Z,51.63
2023-11-07T19:22:11.636Z,52.54
2023-11-07T19:24:39.029Z,51.85
2023-11-07T19:27:06.413Z,52.46
2023-11-07T19:29:33.741Z,51.84
2023-11-07T19:32:00.183Z,52.51
2023-11-07T19:34:26.798Z,51.76
2023-11-07T19:36:55.512Z,52.33
2023-11-07T19:39:22.244Z,52.20
2023-11-07T19:41:48.818Z,52.64
2023-11-07T19:44:16.273Z,51.92
2023-11-07T19:46:46.314Z,52.01
2023-11-07T19:49:14.809Z,52.08
2023-11-07T19:51:44.147Z,52.28
2023-11-07T19:54:10.785Z,52.19
2023-11-07T19:56:38.382Z,52.01
2023-11-07T19:59:05.337Z,52.72
2023-11-07T20:01:31.846Z,51.99
2023-11-07T20:04:00.476Z,52.21
2023-11-07T20:06:27.135Z,51.42
2023-11-07T20:08:53.653Z,52.12
2023-11-07T20:11:22.018Z,51.02
2023-11-07T20:13:48.591Z,51.03
2023-11-07T20:16:15.175Z,51.06
2023-11-07T20:18:41.977Z,52.05
2023-11-07T20:21:08.700Z,52.30
2023-11-07T20:23:35.246Z,52.29
2023-11-07T20:26:03.622Z,52.33
2023-11-07T20:28:30.142Z,52.16
2023-11-07T20:30:56.669Z,52.19
2023-11-07T20:33:25.142Z,52.30
2023-11-07T20:35:54.761Z,52.79
2023-11-07T20:38:22.229Z,52.37
2023-11-07T20:40:48.746Z,52.69
2023-11-07T20:43:15.244Z,52.27
2023-11-07T20:45:43.686Z,52.65
2023-11-07T20:48:13.128Z,52.13
2023-11-07T20:50:39.743Z,52.38
2023-11-07T20:53:09.795Z,51.65
2023-11-07T20:55:36.306Z,51.77
2023-11-07T20:58:06.275Z,52.09
2023-11-07T21:00:35.110Z,51.13
2023-11-07T21:03:04.554Z,51.08
2023-11-07T21:05:31.157Z,51.04
2023-11-07T21:07:59.547Z,51.48
2023-11-07T21:10:26.138Z,51.31
2023-11-07T21:12:52.667Z,51.48
2023-11-07T21:15:19.253Z,51.76
2023-11-07T21:17:45.794Z,51.04
2023-11-07T21:20:12.319Z,51.81
2023-11-07T21:22:41.653Z,51.15
2023-11-07T21:25:09.041Z,51.38
2023-11-07T21:27:38.361Z,50.90
2023-11-07T21:30:04.989Z,51.09
2023-11-07T21:32:32.424Z,51.02
2023-11-07T21:34:59.006Z,50.62
2023-11-07T21:37:28.247Z,50.84
2023-11-07T21:39:54.748Z,50.82
2023-11-07T21:42:21.220Z,51.31
2023-11-07T21:44:47.707Z,51.38
2023-11-07T21:47:15.997Z,51.14
2023-11-07T21:49:43.433Z,51.87
2023-11-07T21:52:09.942Z,51.60
2023-11-07T21:54:36.489Z,52.18
2023-11-07T21:57:04.883Z,52.12
2023-11-07T21:59:31.388Z,52.25
2023-11-07T22:01:57.824Z,52.38
2023-11-07T22:04:27.090Z,51.66
2023-11-07T22:06:53.681Z,52.22
2023-11-07T22:09:20.253Z,51.97
2023-11-07T22:11:46.822Z,51.87
2023-11-07T22:14:14.192Z,51.78
2023-11-07T22:16:40.757Z,51.81
2023-11-07T22:19:10.041Z,51.65
2023-11-07T22:21:38.523Z,51.85
2023-11-07T22:24:07.025Z,51.65
2023-11-07T22:26:33.541Z,51.79
2023-11-07T22:29:00.133Z,51.18
2023-11-07T22:31:26.703Z,51.67
2023-11-07T22:33:53.526Z,51.25
2023-11-07T22:36:21.042Z,51.40
2023-11-07T22:38:50.325Z,51.29
2023-11-07T22:41:16.784Z,50.73
2023-11-07T22:43:46.070Z,51.23
2023-11-07T22:46:12.595Z,51.19
2023-11-07T22:48:41.938Z,51.01
2023-11-07T22:51:08.530Z,51.05
2023-11-07T22:53:35.058Z,50.83
2023-11-07T22:56:04.415Z,50.79
2023-11-07T22:58:30.917Z,50.58
2023-11-07T23:00:59.279Z,50.75
2023-11-07T23:03:27.626Z,50.77
2023-11-07T23:05:54.277Z,50.65
2023-11-07T23:08:20.909Z,50.74
2023-11-07T23:10:49.270Z,50.87
2023-11-07T23:13:15.767Z,51.11
2023-11-07T23:15:44.110Z,50.85
2023-11-07T23:18:11.641Z,51.09
2023-11-07T23:20:38.301Z,50.78
2023-11-07T23:23:07.558Z,51.26
2023-11-07T23:25:34.052Z,50.58
2023-11-07T23:28:03.311Z,51.22
2023-11-07T23:30:29.911Z,51.06
2023-11-07T23:33:01.006Z,50.88
2023-11-07T23:35:27.863Z,50.57
2023-11-07T23:37:56.213Z,50.59
2023-11-07T23:40:22.753Z,50.85
2023-11-07T23:42:49.288Z,50.68
2023-11-07T23:45:17.628Z,51.05
2023-11-07T23:47:44.136Z,50.73
2023-11-07T23:50:10.606Z,50.38
2023-11-07T23:52:38.948Z,50.59
2023-11-07T23:55:05.456Z,50.52
2023-11-07T23:57:31.969Z,51.00
2023-11-07T23:59:58.530Z,49.96
